FOR weather

Pinto Martins International Airport
Fortaleza, CearĂ¡, Brazil

Public forecast

Using degrees Celsius for public forecast. Weather courtesy of forecast.io.

Current aviation weather report (METAR) for Pinto Martins International Airport

Retrieved 2020/08/07 18:00 UTC (6 minutes ago):

SBFZ 071800Z 09017KT 9999 FEW030 30/20 Q1013

Aviation forecast (TAF) for Pinto Martins International Airport

Retrieved 2020/08/07 18:21 UTC (0 seconds ago):

TAF SBFZ 071600Z 0718/0818 08015KT 9999 FEW030 TN23/0808Z TX31/0815Z BECMG 0803/0805 14007KT BECMG 0810/0812 14015KT RMK PDU